sensor_id;sensor_type;location;lat;lon;timestamp;pressure;altitude;pressure_sealevel;temperature;humidity
69173;BME280;56280;49.662;8.408;2022-08-01T00:01:33;100655.66;;;23.96;51.13
69173;BME280;56280;49.662;8.408;2022-08-01T00:03:59;100646.44;;;23.90;51.04
69173;BME280;56280;49.662;8.408;2022-08-01T00:06:24;100667.31;;;23.96;51.78
69173;BME280;56280;49.662;8.408;2022-08-01T00:08:50;100663.16;;;23.94;51.74
69173;BME280;56280;49.662;8.408;2022-08-01T00:11:15;100653.56;;;23.84;51.70
69173;BME280;56280;49.662;8.408;2022-08-01T00:13:40;100665.81;;;23.80;51.97
69173;BME280;56280;49.662;8.408;2022-08-01T00:16:06;100664.34;;;23.78;52.64
69173;BME280;56280;49.662;8.408;2022-08-01T00:18:31;100652.25;;;23.60;52.61
69173;BME280;56280;49.662;8.408;2022-08-01T00:20:57;100648.88;;;23.58;52.69
69173;BME280;56280;49.662;8.408;2022-08-01T00:23:22;100658.28;;;23.56;53.13
69173;BME280;56280;49.662;8.408;2022-08-01T00:25:47;100651.81;;;23.50;53.13
69173;BME280;56280;49.662;8.408;2022-08-01T00:28:12;100648.88;;;23.45;53.54
69173;BME280;56280;49.662;8.408;2022-08-01T00:30:38;100645.53;;;23.36;53.59
69173;BME280;56280;49.662;8.408;2022-08-01T00:33:04;100652.19;;;23.40;53.56
69173;BME280;56280;49.662;8.408;2022-08-01T00:35:29;100657.81;;;23.39;53.56
69173;BME280;56280;49.662;8.408;2022-08-01T00:37:55;100662.41;;;23.32;54.17
69173;BME280;56280;49.662;8.408;2022-08-01T00:40:20;100658.84;;;23.31;53.87
69173;BME280;56280;49.662;8.408;2022-08-01T00:42:46;100662.16;;;23.26;54.27
69173;BME280;56280;49.662;8.408;2022-08-01T00:45:11;100672.81;;;23.28;54.32
69173;BME280;56280;49.662;8.408;2022-08-01T00:47:37;100661.34;;;23.26;54.43
69173;BME280;56280;49.662;8.408;2022-08-01T00:50:06;100665.94;;;23.25;54.48
69173;BME280;56280;49.662;8.408;2022-08-01T00:52:32;100654.00;;;23.13;54.81
69173;BME280;56280;49.662;8.408;2022-08-01T00:54:58;100657.38;;;23.22;54.65
69173;BME280;56280;49.662;8.408;2022-08-01T00:57:23;100655.69;;;23.14;54.50
69173;BME280;56280;49.662;8.408;2022-08-01T00:59:49;100664.22;;;23.18;54.62
69173;BME280;56280;49.662;8.408;2022-08-01T01:02:14;100657.56;;;23.14;54.14
69173;BME280;56280;49.662;8.408;2022-08-01T01:04:41;100658.19;;;23.16;54.31
69173;BME280;56280;49.662;8.408;2022-08-01T01:07:19;100666.31;;;23.16;54.71
69173;BME280;56280;49.662;8.408;2022-08-01T01:09:58;100655.66;;;23.07;54.47
69173;BME280;56280;49.662;8.408;2022-08-01T01:17:50;100662.84;;;22.93;55.69
69173;BME280;56280;49.662;8.408;2022-08-01T01:20:17;100671.59;;;22.89;56.05
69173;BME280;56280;49.662;8.408;2022-08-01T01:25:44;100667.16;;;22.81;56.32
69173;BME280;56280;49.662;8.408;2022-08-01T01:30:57;100682.72;;;22.66;56.53
69173;BME280;56280;49.662;8.408;2022-08-01T01:33:25;100665.59;;;22.58;57.46
69173;BME280;56280;49.662;8.408;2022-08-01T01:35:59;100672.50;;;22.68;57.45
69173;BME280;56280;49.662;8.408;2022-08-01T01:38:32;100679.78;;;22.61;57.29
69173;BME280;56280;49.662;8.408;2022-08-01T01:40:59;100678.50;;;22.56;57.86
69173;BME280;56280;49.662;8.408;2022-08-01T01:43:27;100675.94;;;22.48;57.74
69173;BME280;56280;49.662;8.408;2022-08-01T01:45:54;100684.94;;;22.55;57.98
69173;BME280;56280;49.662;8.408;2022-08-01T01:48:22;100679.44;;;22.42;58.59
69173;BME280;56280;49.662;8.408;2022-08-01T01:50:49;100687.06;;;22.32;58.91
69173;BME280;56280;49.662;8.408;2022-08-01T01:53:18;100689.13;;;22.30;58.59
69173;BME280;56280;49.662;8.408;2022-08-01T01:55:48;100697.72;;;22.33;58.62
69173;BME280;56280;49.662;8.408;2022-08-01T01:58:15;100691.44;;;22.33;58.56
69173;BME280;56280;49.662;8.408;2022-08-01T02:00:42;100692.50;;;22.32;58.38
69173;BME280;56280;49.662;8.408;2022-08-01T02:03:11;100694.16;;;22.33;58.67
69173;BME280;56280;49.662;8.408;2022-08-01T02:05:38;100687.63;;;22.27;58.79
69173;BME280;56280;49.662;8.408;2022-08-01T02:08:04;100682.41;;;22.26;58.77
69173;BME280;56280;49.662;8.408;2022-08-01T02:10:31;100695.75;;;22.27;58.62
69173;BME280;56280;49.662;8.408;2022-08-01T02:12:58;100684.03;;;22.20;59.15
69173;BME280;56280;49.662;8.408;2022-08-01T02:15:25;100694.06;;;22.26;58.90
69173;BME280;56280;49.662;8.408;2022-08-01T02:17:53;100691.75;;;22.23;59.12
69173;BME280;56280;49.662;8.408;2022-08-01T02:20:20;100697.16;;;22.23;59.33
69173;BME280;56280;49.662;8.408;2022-08-01T02:23:03;100702.78;;;22.21;59.35
69173;BME280;56280;49.662;8.408;2022-08-01T02:25:36;100701.50;;;22.17;59.11
69173;BME280;56280;49.662;8.408;2022-08-01T02:28:17;100700.44;;;22.18;59.13
69173;BME280;56280;49.662;8.408;2022-08-01T02:30:47;100703.56;;;22.15;58.98
69173;BME280;56280;49.662;8.408;2022-08-01T02:33:43;100714.59;;;22.14;59.53
69173;BME280;56280;49.662;8.408;2022-08-01T02:36:10;100710.19;;;22.13;59.29
69173;BME280;56280;49.662;8.408;2022-08-01T02:38:41;100711.41;;;22.10;59.02
69173;BME280;56280;49.662;8.408;2022-08-01T02:41:09;100690.56;;;22.04;58.84
69173;BME280;56280;49.662;8.408;2022-08-01T02:43:37;100692.88;;;22.07;59.44
69173;BME280;56280;49.662;8.408;2022-08-01T02:46:04;100694.31;;;22.03;59.09
69173;BME280;56280;49.662;8.408;2022-08-01T02:48:33;100687.59;;;21.99;59.40
69173;BME280;56280;49.662;8.408;2022-08-01T02:51:01;100693.66;;;22.01;59.44
69173;BME280;56280;49.662;8.408;2022-08-01T02:53:28;100700.72;;;22.02;58.76
69173;BME280;56280;49.662;8.408;2022-08-01T02:55:56;100703.44;;;22.02;59.14
69173;BME280;56280;49.662;8.408;2022-08-01T02:58:23;100693.78;;;21.93;59.30
69173;BME280;56280;49.662;8.408;2022-08-01T03:00:50;100705.91;;;21.97;59.74
69173;BME280;56280;49.662;8.408;2022-08-01T03:03:17;100689.75;;;21.82;59.65
69173;BME280;56280;49.662;8.408;2022-08-01T03:05:43;100696.75;;;21.76;60.04
69173;BME280;56280;49.662;8.408;2022-08-01T03:08:09;100701.72;;;21.73;60.27
69173;BME280;56280;49.662;8.408;2022-08-01T03:10:40;100707.69;;;21.68;60.62
69173;BME280;56280;49.662;8.408;2022-08-01T03:13:08;100703.44;;;21.59;60.25
69173;BME280;56280;49.662;8.408;2022-08-01T03:15:39;100701.03;;;21.49;60.83
69173;BME280;56280;49.662;8.408;2022-08-01T03:18:06;100700.31;;;21.40;61.55
69173;BME280;56280;49.662;8.408;2022-08-01T03:20:33;100711.88;;;21.34;61.52
69173;BME280;56280;49.662;8.408;2022-08-01T03:23:02;100699.78;;;21.15;62.34
69173;BME280;56280;49.662;8.408;2022-08-01T03:25:29;100696.00;;;21.09;62.32
69173;BME280;56280;49.662;8.408;2022-08-01T03:27:58;100711.44;;;21.16;62.42
69173;BME280;56280;49.662;8.408;2022-08-01T03:30:26;100701.28;;;21.18;62.27
69173;BME280;56280;49.662;8.408;2022-08-01T03:32:52;100708.91;;;21.29;62.16
69173;BME280;56280;49.662;8.408;2022-08-01T03:35:18;100703.88;;;21.26;62.52
69173;BME280;56280;49.662;8.408;2022-08-01T03:37:50;100700.41;;;21.32;61.97
69173;BME280;56280;49.662;8.408;2022-08-01T03:40:28;100719.59;;;21.37;62.34
69173;BME280;56280;49.662;8.408;2022-08-01T03:43:00;100705.56;;;21.27;62.47
69173;BME280;56280;49.662;8.408;2022-08-01T03:45:31;100704.41;;;21.36;62.62
69173;BME280;56280;49.662;8.408;2022-08-01T03:48:00;100710.00;;;21.49;62.25
69173;BME280;56280;49.662;8.408;2022-08-01T03:50:28;100709.50;;;21.46;62.19
69173;BME280;56280;49.662;8.408;2022-08-01T03:52:57;100696.16;;;21.44;62.22
69173;BME280;56280;49.662;8.408;2022-08-01T03:55:24;100700.47;;;21.54;62.13
69173;BME280;56280;49.662;8.408;2022-08-01T03:57:50;100705.75;;;21.62;61.89
69173;BME280;56280;49.662;8.408;2022-08-01T04:00:16;100705.81;;;21.68;62.16
69173;BME280;56280;49.662;8.408;2022-08-01T04:02:46;100700.22;;;21.70;61.82
69173;BME280;56280;49.662;8.408;2022-08-01T04:05:12;100691.47;;;21.68;61.71
69173;BME280;56280;49.662;8.408;2022-08-01T04:07:37;100694.81;;;21.70;61.37
69173;BME280;56280;49.662;8.408;2022-08-01T04:10:05;100703.22;;;21.75;61.15
69173;BME280;56280;49.662;8.408;2022-08-01T04:12:30;100696.13;;;21.74;61.38
69173;BME280;56280;49.662;8.408;2022-08-01T04:14:55;100696.94;;;21.75;61.13
69173;BME280;56280;49.662;8.408;2022-08-01T04:17:20;100691.53;;;21.75;60.77
69173;BME280;56280;49.662;8.408;2022-08-01T04:19:46;100714.97;;;21.89;61.31
69173;BME280;56280;49.662;8.408;2022-08-01T04:22:14;100705.59;;;21.85;61.20
69173;BME280;56280;49.662;8.408;2022-08-01T04:24:41;100708.34;;;21.92;61.17
69173;BME280;56280;49.662;8.408;2022-08-01T04:27:11;100720.06;;;21.99;61.33
69173;BME280;56280;49.662;8.408;2022-08-01T04:29:39;100714.00;;;21.97;61.48
69173;BME280;56280;49.662;8.408;2022-08-01T04:32:07;100716.34;;;22.00;61.50
69173;BME280;56280;49.662;8.408;2022-08-01T04:34:34;100722.63;;;22.07;61.18
69173;BME280;56280;49.662;8.408;2022-08-01T04:37:03;100726.00;;;22.09;61.23
69173;BME280;56280;49.662;8.408;2022-08-01T04:39:31;100736.53;;;22.26;61.24
69173;BME280;56280;49.662;8.408;2022-08-01T04:41:59;100743.25;;;22.08;61.53
69173;BME280;56280;49.662;8.408;2022-08-01T04:44:25;100737.72;;;21.95;62.46
69173;BME280;56280;49.662;8.408;2022-08-01T04:46:53;100726.50;;;21.98;62.76
69173;BME280;56280;49.662;8.408;2022-08-01T04:49:20;100747.44;;;22.11;62.26
69173;BME280;56280;49.662;8.408;2022-08-01T04:51:50;100741.84;;;22.12;62.28
69173;BME280;56280;49.662;8.408;2022-08-01T04:54:16;100728.03;;;22.07;62.25
69173;BME280;56280;49.662;8.408;2022-08-01T04:56:41;100744.22;;;22.22;62.15
69173;BME280;56280;49.662;8.408;2022-08-01T04:59:07;100753.06;;;22.31;62.00
69173;BME280;56280;49.662;8.408;2022-08-01T05:01:50;100744.94;;;22.31;61.58
69173;BME280;56280;49.662;8.408;2022-08-01T05:04:15;100755.03;;;22.44;61.86
69173;BME280;56280;49.662;8.408;2022-08-01T05:06:41;100757.16;;;22.48;61.61
69173;BME280;56280;49.662;8.408;2022-08-01T05:09:06;100750.91;;;22.83;61.39
69173;BME280;56280;49.662;8.408;2022-08-01T05:11:31;100743.91;;;23.23;60.38
69173;BME280;56280;49.662;8.408;2022-08-01T05:13:57;100743.66;;;23.73;58.85
69173;BME280;56280;49.662;8.408;2022-08-01T05:16:22;100738.28;;;24.13;57.18
69173;BME280;56280;49.662;8.408;2022-08-01T05:18:47;100747.06;;;24.35;56.02
69173;BME280;56280;49.662;8.408;2022-08-01T05:21:12;100743.09;;;24.78;54.85
69173;BME280;56280;49.662;8.408;2022-08-01T05:23:38;100750.09;;;25.12;53.23
69173;BME280;56280;49.662;8.408;2022-08-01T05:26:03;100722.44;;;25.36;53.88
69173;BME280;56280;49.662;8.408;2022-08-01T05:28:29;100748.25;;;25.97;51.84
69173;BME280;56280;49.662;8.408;2022-08-01T05:30:55;100744.91;;;26.27;50.65
69173;BME280;56280;49.662;8.408;2022-08-01T05:33:20;100751.72;;;26.61;49.41
69173;BME280;56280;49.662;8.408;2022-08-01T05:35:46;100756.66;;;26.78;48.49
69173;BME280;56280;49.662;8.408;2022-08-01T05:38:12;100756.41;;;26.98;48.57
69173;BME280;56280;49.662;8.408;2022-08-01T05:40:37;100740.53;;;27.13;47.51
69173;BME280;56280;49.662;8.408;2022-08-01T05:43:02;100760.28;;;27.45;47.02
69173;BME280;56280;49.662;8.408;2022-08-01T05:45:27;100758.91;;;27.55;46.35
69173;BME280;56280;49.662;8.408;2022-08-01T05:47:53;100745.63;;;27.58;46.27
69173;BME280;56280;49.662;8.408;2022-08-01T05:50:18;100757.56;;;27.76;45.70
69173;BME280;56280;49.662;8.408;2022-08-01T05:52:43;100755.91;;;27.75;45.16
69173;BME280;56280;49.662;8.408;2022-08-01T05:55:09;100756.31;;;27.90;45.54
69173;BME280;56280;49.662;8.408;2022-08-01T05:57:34;100749.03;;;28.14;44.72
69173;BME280;56280;49.662;8.408;2022-08-01T05:59:59;100744.16;;;28.16;44.47
69173;BME280;56280;49.662;8.408;2022-08-01T06:02:25;100752.13;;;28.30;44.04
69173;BME280;56280;49.662;8.408;2022-08-01T06:04:50;100751.31;;;28.29;43.86
69173;BME280;56280;49.662;8.408;2022-08-01T06:07:15;100757.88;;;28.40;44.11
69173;BME280;56280;49.662;8.408;2022-08-01T06:09:41;100749.66;;;28.52;43.67
69173;BME280;56280;49.662;8.408;2022-08-01T06:12:06;100753.56;;;28.56;43.77
69173;BME280;56280;49.662;8.408;2022-08-01T06:14:31;100753.50;;;28.74;43.19
69173;BME280;56280;49.662;8.408;2022-08-01T06:16:57;100766.78;;;28.83;42.08
69173;BME280;56280;49.662;8.408;2022-08-01T06:19:22;100771.69;;;28.81;42.91
69173;BME280;56280;49.662;8.408;2022-08-01T06:21:47;100765.59;;;28.90;42.80
69173;BME280;56280;49.662;8.408;2022-08-01T06:24:13;100753.44;;;29.10;42.15
69173;BME280;56280;49.662;8.408;2022-08-01T06:26:38;100771.63;;;29.04;42.11
69173;BME280;56280;49.662;8.408;2022-08-01T06:29:03;100778.91;;;29.22;42.24
69173;BME280;56280;49.662;8.408;2022-08-01T06:31:29;100765.09;;;29.58;41.95
69173;BME280;56280;49.662;8.408;2022-08-01T06:33:56;100766.66;;;29.54;41.60
69173;BME280;56280;49.662;8.408;2022-08-01T06:36:22;100766.25;;;29.62;41.36
69173;BME280;56280;49.662;8.408;2022-08-01T06:38:47;100766.44;;;30.01;41.64
69173;BME280;56280;49.662;8.408;2022-08-01T06:41:13;100775.50;;;30.02;41.24
69173;BME280;56280;49.662;8.408;2022-08-01T06:43:38;100773.28;;;30.32;39.08
69173;BME280;56280;49.662;8.408;2022-08-01T06:46:04;100775.59;;;30.07;40.91
69173;BME280;56280;49.662;8.408;2022-08-01T06:48:29;100783.19;;;30.50;40.04
69173;BME280;56280;49.662;8.408;2022-08-01T06:50:54;100771.22;;;30.57;40.00
69173;BME280;56280;49.662;8.408;2022-08-01T06:53:34;100776.84;;;30.84;39.56
69173;BME280;56280;49.662;8.408;2022-08-01T06:55:59;100783.06;;;30.79;40.25
69173;BME280;56280;49.662;8.408;2022-08-01T06:58:24;100755.16;;;30.65;39.00
69173;BME280;56280;49.662;8.408;2022-08-01T07:00:50;100781.88;;;30.53;38.55
69173;BME280;56280;49.662;8.408;2022-08-01T07:03:15;100789.50;;;28.95;41.49
69173;BME280;56280;49.662;8.408;2022-08-01T07:05:41;100792.78;;;27.28;44.91
69173;BME280;56280;49.662;8.408;2022-08-01T07:08:06;100802.94;;;27.21;46.29
69173;BME280;56280;49.662;8.408;2022-08-01T07:10:31;100791.28;;;26.70;47.02
69173;BME280;56280;49.662;8.408;2022-08-01T07:12:56;100798.13;;;26.23;48.20
69173;BME280;56280;49.662;8.408;2022-08-01T07:15:22;100789.53;;;26.26;48.77
69173;BME280;56280;49.662;8.408;2022-08-01T07:17:51;100784.69;;;25.96;50.78
69173;BME280;56280;49.662;8.408;2022-08-01T07:20:16;100784.69;;;26.53;48.21
69173;BME280;56280;49.662;8.408;2022-08-01T07:22:42;100784.50;;;26.80;47.42
69173;BME280;56280;49.662;8.408;2022-08-01T07:25:08;100781.88;;;27.10;47.39
69173;BME280;56280;49.662;8.408;2022-08-01T07:27:34;100774.06;;;27.14;48.10
69173;BME280;56280;49.662;8.408;2022-08-01T07:29:59;100756.06;;;27.31;49.40
69173;BME280;56280;49.662;8.408;2022-08-01T07:32:24;100767.03;;;27.43;46.70
69173;BME280;56280;49.662;8.408;2022-08-01T07:34:50;100779.78;;;26.87;47.94
69173;BME280;56280;49.662;8.408;2022-08-01T07:37:15;100756.63;;;26.52;47.88
69173;BME280;56280;49.662;8.408;2022-08-01T07:39:41;100770.69;;;25.92;49.59
69173;BME280;56280;49.662;8.408;2022-08-01T07:42:06;100767.22;;;25.26;51.81
69173;BME280;56280;49.662;8.408;2022-08-01T07:44:32;100769.75;;;25.15;51.50
69173;BME280;56280;49.662;8.408;2022-08-01T07:46:57;100773.50;;;25.20;51.44
69173;BME280;56280;49.662;8.408;2022-08-01T07:49:22;100782.78;;;24.79;52.47
69173;BME280;56280;49.662;8.408;2022-08-01T07:51:48;100778.63;;;24.36;54.13
69173;BME280;56280;49.662;8.408;2022-08-01T07:54:13;100769.84;;;24.34;53.63
69173;BME280;56280;49.662;8.408;2022-08-01T07:56:39;100771.91;;;24.86;53.62
69173;BME280;56280;49.662;8.408;2022-08-01T07:59:04;100765.34;;;25.72;50.82
69173;BME280;56280;49.662;8.408;2022-08-01T08:01:29;100780.03;;;25.06;51.98
69173;BME280;56280;49.662;8.408;2022-08-01T08:03:55;100783.66;;;24.80;53.38
69173;BME280;56280;49.662;8.408;2022-08-01T08:06:20;100773.38;;;24.55;53.34
69173;BME280;56280;49.662;8.408;2022-08-01T08:08:45;100762.53;;;24.55;53.16
69173;BME280;56280;49.662;8.408;2022-08-01T08:11:10;100777.44;;;25.24;51.25
69173;BME280;56280;49.662;8.408;2022-08-01T08:13:36;100772.25;;;25.16;52.06
69173;BME280;56280;49.662;8.408;2022-08-01T08:16:01;100772.13;;;25.56;52.25
69173;BME280;56280;49.662;8.408;2022-08-01T08:18:26;100765.41;;;25.65;51.07
69173;BME280;56280;49.662;8.408;2022-08-01T08:20:52;100770.84;;;25.07;53.45
69173;BME280;56280;49.662;8.408;2022-08-01T08:23:17;100769.00;;;24.94;52.13
69173;BME280;56280;49.662;8.408;2022-08-01T08:26:01;100783.94;;;25.37;51.48
69173;BME280;56280;49.662;8.408;2022-08-01T08:28:26;100771.41;;;25.74;50.45
69173;BME280;56280;49.662;8.408;2022-08-01T08:30:51;100774.69;;;25.90;49.60
69173;BME280;56280;49.662;8.408;2022-08-01T08:33:18;100781.78;;;25.97;49.78
69173;BME280;56280;49.662;8.408;2022-08-01T08:35:43;100779.50;;;26.26;49.56
69173;BME280;56280;49.662;8.408;2022-08-01T08:38:08;100776.09;;;26.56;48.66
69173;BME280;56280;49.662;8.408;2022-08-01T08:40:36;100780.19;;;26.40;48.46
69173;BME280;56280;49.662;8.408;2022-08-01T08:43:04;100785.72;;;26.59;49.52
69173;BME280;56280;49.662;8.408;2022-08-01T08:45:30;100779.91;;;27.54;48.34
69173;BME280;56280;49.662;8.408;2022-08-01T08:47:56;100777.53;;;27.88;44.99
69173;BME280;56280;49.662;8.408;2022-08-01T08:50:23;100764.53;;;27.72;45.47
69173;BME280;56280;49.662;8.408;2022-08-01T08:52:50;100758.09;;;28.38;44.69
69173;BME280;56280;49.662;8.408;2022-08-01T08:55:17;100773.06;;;28.48;43.20
69173;BME280;56280;49.662;8.408;2022-08-01T08:57:44;100778.16;;;27.90;44.30
69173;BME280;56280;49.662;8.408;2022-08-01T09:00:10;100785.88;;;26.89;46.22
69173;BME280;56280;49.662;8.408;2022-08-01T09:02:41;100783.66;;;25.97;48.66
69173;BME280;56280;49.662;8.408;2022-08-01T09:05:07;100767.41;;;26.15;48.68
69173;BME280;56280;49.662;8.408;2022-08-01T09:07:33;100775.63;;;26.34;48.08
69173;BME280;56280;49.662;8.408;2022-08-01T09:09:58;100764.78;;;26.02;49.21
69173;BME280;56280;49.662;8.408;2022-08-01T09:12:23;100761.69;;;25.53;49.61
69173;BME280;56280;49.662;8.408;2022-08-01T09:14:48;100771.19;;;25.24;50.53
69173;BME280;56280;49.662;8.408;2022-08-01T09:17:15;100773.81;;;25.57;50.78
69173;BME280;56280;49.662;8.408;2022-08-01T09:19:49;100769.78;;;25.66;50.07
69173;BME280;56280;49.662;8.408;2022-08-01T09:22:18;100784.75;;;25.44;50.03
69173;BME280;56280;49.662;8.408;2022-08-01T09:25:15;100773.78;;;25.64;49.88
69173;BME280;56280;49.662;8.408;2022-08-01T09:27:40;100779.91;;;25.91;49.88
69173;BME280;56280;49.662;8.408;2022-08-01T09:32:58;100788.41;;;26.65;48.31
69173;BME280;56280;49.662;8.408;2022-08-01T09:35:30;100797.00;;;26.87;47.63
69173;BME280;56280;49.662;8.408;2022-08-01T09:38:21;100800.19;;;27.03;47.55
69173;BME280;56280;49.662;8.408;2022-08-01T09:40:57;100795.75;;;27.08;46.66
69173;BME280;56280;49.662;8.408;2022-08-01T09:43:24;100799.63;;;27.38;46.22
69173;BME280;56280;49.662;8.408;2022-08-01T09:45:50;100784.38;;;27.30;46.52
69173;BME280;56280;49.662;8.408;2022-08-01T09:48:16;100795.75;;;26.65;47.21
69173;BME280;56280;49.662;8.408;2022-08-01T09:50:43;100784.34;;;25.79;49.04
69173;BME280;56280;49.662;8.408;2022-08-01T09:53:09;100793.81;;;26.15;48.57
69173;BME280;56280;49.662;8.408;2022-08-01T09:55:35;100796.69;;;26.20;49.74
69173;BME280;56280;49.662;8.408;2022-08-01T09:58:00;100793.41;;;26.11;50.17
69173;BME280;56280;49.662;8.408;2022-08-01T10:00:27;100785.59;;;26.22;48.54
69173;BME280;56280;49.662;8.408;2022-08-01T10:02:52;100790.84;;;26.73;48.24
69173;BME280;56280;49.662;8.408;2022-08-01T10:05:30;100792.84;;;27.22;47.10
69173;BME280;56280;49.662;8.408;2022-08-01T10:07:58;100792.06;;;26.78;47.03
69173;BME280;56280;49.662;8.408;2022-08-01T10:10:24;100796.25;;;26.99;47.16
69173;BME280;56280;49.662;8.408;2022-08-01T10:12:51;100792.84;;;26.34;48.11
69173;BME280;56280;49.662;8.408;2022-08-01T10:15:18;100781.88;;;26.41;48.15
69173;BME280;56280;49.662;8.408;2022-08-01T10:17:54;100773.28;;;26.63;47.66
69173;BME280;56280;49.662;8.408;2022-08-01T10:20:20;100778.47;;;27.15;47.39
69173;BME280;56280;49.662;8.408;2022-08-01T10:22:48;100782.00;;;26.97;46.83
69173;BME280;56280;49.662;8.408;2022-08-01T10:25:15;100789.56;;;26.76;48.26
69173;BME280;56280;49.662;8.408;2022-08-01T10:27:43;100784.44;;;26.86;48.40
69173;BME280;56280;49.662;8.408;2022-08-01T10:30:12;100771.72;;;25.98;49.24
69173;BME280;56280;49.662;8.408;2022-08-01T10:32:38;100779.06;;;25.91;50.37
69173;BME280;56280;49.662;8.408;2022-08-01T10:35:05;100779.06;;;26.23;49.82
69173;BME280;56280;49.662;8.408;2022-08-01T10:37:33;100774.59;;;26.60;48.55
69173;BME280;56280;49.662;8.408;2022-08-01T10:39:59;100762.25;;;26.83;47.66
69173;BME280;56280;49.662;8.408;2022-08-01T10:42:25;100767.13;;;27.18;46.62
69173;BME280;56280;49.662;8.408;2022-08-01T10:44:51;100768.16;;;27.54;47.16
69173;BME280;56280;49.662;8.408;2022-08-01T10:47:44;100762.94;;;27.82;46.21
69173;BME280;56280;49.662;8.408;2022-08-01T10:50:32;100758.75;;;28.10;45.46
69173;BME280;56280;49.662;8.408;2022-08-01T10:55:51;100742.75;;;28.49;44.49
69173;BME280;56280;49.662;8.408;2022-08-01T10:58:24;100751.22;;;28.71;45.56
69173;BME280;56280;49.662;8.408;2022-08-01T11:04:10;100730.25;;;29.13;45.21
69173;BME280;56280;49.662;8.408;2022-08-01T11:06:40;100731.47;;;29.45;43.17
69173;BME280;56280;49.662;8.408;2022-08-01T11:12:09;100738.56;;;29.58;41.86
69173;BME280;56280;49.662;8.408;2022-08-01T11:25:23;100726.38;;;29.66;40.54
69173;BME280;56280;49.662;8.408;2022-08-01T11:27:48;100706.78;;;29.57;39.88
69173;BME280;56280;49.662;8.408;2022-08-01T11:32:51;100728.63;;;29.69;41.76
69173;BME280;56280;49.662;8.408;2022-08-01T11:35:17;100713.94;;;29.75;42.39
69173;BME280;56280;49.662;8.408;2022-08-01T11:37:46;100718.97;;;29.95;41.50
69173;BME280;56280;49.662;8.408;2022-08-01T11:40:24;100719.06;;;30.00;40.91
69173;BME280;56280;49.662;8.408;2022-08-01T11:48:20;100716.72;;;29.92;41.85
69173;BME280;56280;49.662;8.408;2022-08-01T11:50:46;100712.81;;;29.88;40.70
69173;BME280;56280;49.662;8.408;2022-08-01T11:53:11;100699.28;;;29.81;40.10
69173;BME280;56280;49.662;8.408;2022-08-01T11:55:47;100700.75;;;29.72;40.67
69173;BME280;56280;49.662;8.408;2022-08-01T11:58:20;100702.56;;;29.50;42.07
69173;BME280;56280;49.662;8.408;2022-08-01T12:00:56;100693.16;;;29.45;40.50
69173;BME280;56280;49.662;8.408;2022-08-01T12:03:27;100686.25;;;29.43;41.29
69173;BME280;56280;49.662;8.408;2022-08-01T12:05:53;100689.44;;;29.69;41.14
69173;BME280;56280;49.662;8.408;2022-08-01T12:08:30;100687.44;;;29.64;39.98
69173;BME280;56280;49.662;8.408;2022-08-01T12:10:58;100686.25;;;29.02;40.45
69173;BME280;56280;49.662;8.408;2022-08-01T12:13:23;100692.66;;;29.20;40.41
69173;BME280;56280;49.662;8.408;2022-08-01T12:15:49;100680.66;;;29.21;40.18
69173;BME280;56280;49.662;8.408;2022-08-01T12:18:15;100685.00;;;29.34;41.81
69173;BME280;56280;49.662;8.408;2022-08-01T12:20:44;100679.06;;;29.54;40.86
69173;BME280;56280;49.662;8.408;2022-08-01T12:23:13;100690.34;;;29.86;40.09
69173;BME280;56280;49.662;8.408;2022-08-01T12:25:39;100690.25;;;29.81;40.72
69173;BME280;56280;49.662;8.408;2022-08-01T12:28:07;100669.81;;;29.72;41.54
69173;BME280;56280;49.662;8.408;2022-08-01T12:30:34;100667.44;;;29.92;40.22
69173;BME280;56280;49.662;8.408;2022-08-01T12:33:00;100683.34;;;30.12;40.44
69173;BME280;56280;49.662;8.408;2022-08-01T12:35:28;100671.59;;;30.12;39.27
69173;BME280;56280;49.662;8.408;2022-08-01T12:37:58;100668.03;;;30.11;40.35
69173;BME280;56280;49.662;8.408;2022-08-01T12:40:29;100686.16;;;30.34;39.32
69173;BME280;56280;49.662;8.408;2022-08-01T12:42:59;100671.06;;;30.32;39.40
69173;BME280;56280;49.662;8.408;2022-08-01T12:45:27;100669.41;;;30.31;39.31
69173;BME280;56280;49.662;8.408;2022-08-01T12:47:53;100673.66;;;30.39;38.74
69173;BME280;56280;49.662;8.408;2022-08-01T12:50:21;100659.44;;;30.25;39.46
69173;BME280;56280;49.662;8.408;2022-08-01T12:52:48;100682.47;;;30.24;39.63
69173;BME280;56280;49.662;8.408;2022-08-01T12:55:16;100673.16;;;30.25;40.51
69173;BME280;56280;49.662;8.408;2022-08-01T12:57:47;100674.38;;;30.34;38.66
69173;BME280;56280;49.662;8.408;2022-08-01T13:00:23;100674.91;;;30.48;39.36
69173;BME280;56280;49.662;8.408;2022-08-01T13:02:59;100676.53;;;30.49;39.42
69173;BME280;56280;49.662;8.408;2022-08-01T13:05:24;100675.84;;;30.59;38.97
69173;BME280;56280;49.662;8.408;2022-08-01T13:07:50;100661.78;;;30.72;39.17
69173;BME280;56280;49.662;8.408;2022-08-01T13:10:29;100660.63;;;30.90;38.64
69173;BME280;56280;49.662;8.408;2022-08-01T13:12:57;100668.81;;;30.85;37.48
69173;BME280;56280;49.662;8.408;2022-08-01T13:15:29;100668.78;;;30.63;39.32
69173;BME280;56280;49.662;8.408;2022-08-01T13:18:00;100667.38;;;30.60;39.48
69173;BME280;56280;49.662;8.408;2022-08-01T13:20:32;100670.38;;;30.59;37.85
69173;BME280;56280;49.662;8.408;2022-08-01T13:23:19;100664.19;;;30.46;38.71
69173;BME280;56280;49.662;8.408;2022-08-01T13:25:53;100667.44;;;30.43;38.75
69173;BME280;56280;49.662;8.408;2022-08-01T13:28:21;100663.09;;;30.47;39.22
69173;BME280;56280;49.662;8.408;2022-08-01T13:30:55;100667.75;;;30.47;39.33
69173;BME280;56280;49.662;8.408;2022-08-01T13:33:21;100668.63;;;30.52;38.17
69173;BME280;56280;49.662;8.408;2022-08-01T13:35:49;100665.91;;;30.52;38.16